Time;durP1;ratioP1;P1;durP2;ratioP2;P2;SDS_P1;SDS_P2;PMS_P1;PMS_P2;Temp;Humidity;BMP_temperature;BMP_pressure;BME280_temperature;BME280_humidity;BME280_pressure;Samples;Min_cycle;Max_cycle;Signal;HPM_P1;HPM_P2
2023/04/27 00:03:46;;;;;;;6.40;3.90;;;12.60;31.20;;;;;;10461014;28;20243;-71
2023/04/27 00:08:50;;;;;;;3.23;2.90;;;12.60;31.10;;;;;;10463307;28;20759;-71
2023/04/27 00:13:54;;;;;;;4.30;3.90;;;12.60;31.00;;;;;;10462265;28;20239;-71
2023/04/27 00:18:57;;;;;;;3.93;3.53;;;12.60;31.30;;;;;;10462000;28;20770;-71
2023/04/27 00:24:00;;;;;;;6.40;4.23;;;12.50;31.10;;;;;;10463634;28;20606;-71
2023/04/27 00:29:05;;;;;;;6.07;3.73;;;12.50;31.10;;;;;;10460419;28;20224;-71
2023/04/27 00:34:08;;;;;;;3.70;3.30;;;12.50;31.50;;;;;;10463270;28;20242;-71
2023/04/27 00:39:11;;;;;;;3.87;3.10;;;12.50;31.20;;;;;;10456670;28;20236;-66
2023/04/27 00:44:24;;;;;;;3.10;2.80;;;12.40;31.10;;;;;;10458742;28;20224;-65
2023/04/27 00:49:27;;;;;;;2.97;2.73;;;12.30;31.70;;;;;;10461185;28;20231;-66
2023/04/27 00:54:32;;;;;;;2.97;2.77;;;12.30;31.30;;;;;;10461911;28;20592;-66
2023/04/27 00:59:36;;;;;;;3.77;3.07;;;12.30;31.70;;;;;;10460354;28;20224;-65
2023/04/27 01:04:40;;;;;;;2.90;2.70;;;12.20;31.80;;;;;;10456822;28;20217;-65
2023/04/27 01:09:43;;;;;;;2.63;2.30;;;12.20;31.70;;;;;;10457899;28;20228;-65
2023/04/27 01:14:47;;;;;;;2.97;2.60;;;12.20;31.60;;;;;;10461066;28;20610;-66
2023/04/27 01:19:54;;;;;;;2.53;2.33;;;12.10;31.80;;;;;;10459115;28;20240;-65
2023/04/27 01:24:58;;;;;;;3.07;2.13;;;12.10;31.50;;;;;;10458268;28;20239;-65
2023/04/27 01:30:02;;;;;;;2.80;2.40;;;12.00;31.70;;;;;;10461478;28;20717;-66
2023/04/27 01:35:06;;;;;;;2.67;2.20;;;12.00;31.60;;;;;;10465549;28;20709;-65
2023/04/27 01:40:11;;;;;;;5.67;2.80;;;12.00;31.70;;;;;;10465947;28;20251;-65
2023/04/27 01:45:15;;;;;;;3.63;3.00;;;12.00;32.00;;;;;;10466611;28;20656;-65
2023/04/27 01:50:18;;;;;;;2.53;2.30;;;12.00;31.70;;;;;;10468228;28;20247;-65
2023/04/27 01:55:22;;;;;;;2.70;2.50;;;11.90;31.60;;;;;;10464296;28;20228;-65
2023/04/27 02:00:26;;;;;;;3.00;2.50;;;11.90;31.90;;;;;;10471458;28;20237;-66
2023/04/27 02:05:29;;;;;;;2.40;2.27;;;11.90;31.70;;;;;;10464379;28;20220;-66
2023/04/27 02:10:35;;;;;;;3.90;3.17;;;11.90;31.80;;;;;;10464119;28;20234;-65
2023/04/27 02:15:38;;;;;;;3.47;3.17;;;11.90;32.20;;;;;;10466043;28;20233;-65
2023/04/27 02:20:41;;;;;;;3.30;3.00;;;11.90;32.00;;;;;;10467452;28;20621;-65
2023/04/27 02:25:46;;;;;;;3.20;2.83;;;11.90;32.10;;;;;;10462272;28;20735;-65
2023/04/27 02:30:49;;;;;;;2.73;2.53;;;11.80;32.20;;;;;;10462879;28;20710;-66
2023/04/27 02:35:52;;;;;;;3.00;2.80;;;11.80;31.90;;;;;;10463320;28;20236;-66
2023/04/27 02:40:56;;;;;;;2.97;2.23;;;11.80;32.00;;;;;;10465322;28;20233;-66
2023/04/27 02:46:03;;;;;;;2.70;1.90;;;11.70;32.20;;;;;;10464252;28;20241;-66
2023/04/27 02:51:06;;;;;;;2.50;1.90;;;11.60;32.30;;;;;;10462179;28;20252;-65
2023/04/27 02:56:11;;;;;;;4.17;2.57;;;11.60;32.70;;;;;;10463345;28;20232;-65
2023/04/27 03:01:16;;;;;;;2.83;2.63;;;11.50;32.30;;;;;;10462866;28;20228;-65
2023/04/27 03:06:19;;;;;;;2.07;1.83;;;11.50;32.10;;;;;;10464581;28;20239;-65
2023/04/27 03:11:23;;;;;;;2.73;2.40;;;11.50;32.00;;;;;;10460906;28;20244;-66
2023/04/27 03:16:27;;;;;;;6.40;5.03;;;11.50;32.10;;;;;;10467190;28;20225;-66
2023/04/27 03:21:30;;;;;;;16.03;12.27;;;11.40;31.80;;;;;;10460669;28;20559;-65
2023/04/27 03:26:35;;;;;;;11.40;8.90;;;11.30;31.50;;;;;;10462883;28;20227;-65
2023/04/27 03:31:38;;;;;;;8.43;6.60;;;11.20;31.50;;;;;;10462133;28;20593;-65
2023/04/27 03:36:41;;;;;;;9.77;6.10;;;11.00;31.30;;;;;;10463514;28;20255;-65
2023/04/27 03:41:46;;;;;;;5.07;4.57;;;10.80;31.40;;;;;;10462864;28;20220;-66
2023/04/27 03:46:49;;;;;;;4.53;4.13;;;10.60;31.70;;;;;;10463610;28;20224;-65
2023/04/27 03:51:52;;;;;;;3.97;3.63;;;10.50;31.80;;;;;;10457132;28;20629;-65
2023/04/27 03:56:56;;;;;;;3.43;2.93;;;10.50;31.90;;;;;;10457613;28;20228;-65
2023/04/27 04:02:00;;;;;;;3.70;3.40;;;10.40;32.00;;;;;;10459086;28;20239;-65
2023/04/27 04:07:03;;;;;;;3.80;2.90;;;10.40;31.90;;;;;;10455936;28;20232;-65
2023/04/27 04:12:08;;;;;;;2.90;2.70;;;10.40;31.90;;;;;;10453541;28;20259;-65
2023/04/27 04:17:11;;;;;;;2.93;2.60;;;10.40;32.10;;;;;;10460192;28;20236;-65
2023/04/27 04:22:14;;;;;;;3.20;2.90;;;10.40;32.00;;;;;;10453167;28;20224;-66
2023/04/27 04:27:19;;;;;;;5.97;3.60;;;10.40;32.10;;;;;;10454952;28;20314;-66
2023/04/27 04:32:22;;;;;;;2.87;2.50;;;10.40;32.30;;;;;;10452889;28;20278;-66
2023/04/27 04:37:25;;;;;;;3.43;3.13;;;10.40;32.10;;;;;;10454922;28;20766;-71
2023/04/27 04:42:30;;;;;;;4.53;3.00;;;10.30;32.20;;;;;;10456648;28;20239;-71
2023/04/27 04:47:33;;;;;;;3.37;3.00;;;10.40;32.50;;;;;;10458258;28;20251;-71
2023/04/27 04:52:37;;;;;;;3.93;3.10;;;10.30;32.30;;;;;;10449198;28;20228;-71
2023/04/27 04:57:43;;;;;;;2.70;2.50;;;10.30;32.30;;;;;;10458008;28;20220;-71
2023/04/27 05:02:46;;;;;;;5.10;2.63;;;10.30;32.60;;;;;;10458223;28;20247;-71
2023/04/27 05:07:49;;;;;;;3.10;2.63;;;10.30;32.50;;;;;;10458981;28;20277;-71
2023/04/27 05:12:54;;;;;;;3.53;3.23;;;10.30;32.70;;;;;;10462636;28;20239;-71
2023/04/27 05:17:57;;;;;;;4.13;3.33;;;10.30;33.00;;;;;;10462603;28;20216;-70
2023/04/27 05:23:00;;;;;;;4.07;2.87;;;10.40;33.00;;;;;;10459641;28;20232;-71
2023/04/27 05:28:05;;;;;;;5.83;3.63;;;10.40;33.40;;;;;;10458740;28;20228;-72
2023/04/27 05:33:08;;;;;;;7.03;4.37;;;10.50;34.30;;;;;;10460829;28;20224;-71
2023/04/27 05:38:13;;;;;;;4.70;4.13;;;10.50;33.60;;;;;;10459165;28;20221;-72
2023/04/27 05:43:18;;;;;;;4.20;3.60;;;10.60;33.50;;;;;;10462960;28;20232;-72
2023/04/27 05:48:21;;;;;;;3.37;3.07;;;10.50;33.60;;;;;;10464506;28;20233;-66
2023/04/27 05:53:24;;;;;;;4.30;3.50;;;10.50;33.60;;;;;;10466996;28;20240;-66
2023/04/27 05:58:29;;;;;;;3.73;3.40;;;10.50;33.70;;;;;;10462292;28;20217;-66
2023/04/27 06:03:32;;;;;;;4.60;3.47;;;10.40;34.20;;;;;;10459729;28;20684;-66
2023/04/27 06:08:38;;;;;;;3.43;3.00;;;10.40;34.10;;;;;;10469112;28;20228;-66
2023/04/27 06:13:42;;;;;;;3.60;3.23;;;10.40;34.30;;;;;;10464459;28;20621;-66
2023/04/27 06:18:46;;;;;;;4.53;3.50;;;10.50;34.70;;;;;;10464181;28;20272;-66
2023/04/27 06:23:49;;;;;;;3.70;3.40;;;10.60;34.70;;;;;;10466650;28;20244;-66
2023/04/27 06:28:55;;;;;;;5.47;3.23;;;10.70;34.90;;;;;;10463035;28;20225;-66
2023/04/27 06:33:58;;;;;;;4.80;3.17;;;10.80;35.40;;;;;;10465143;28;20251;-66
2023/04/27 06:39:01;;;;;;;4.57;3.70;;;10.90;34.60;;;;;;10462980;28;20229;-67
2023/04/27 06:44:06;;;;;;;5.43;3.30;;;11.00;34.30;;;;;;10463740;28;20850;-67
2023/04/27 06:49:09;;;;;;;3.47;3.13;;;11.10;33.90;;;;;;10462906;28;20224;-66
2023/04/27 06:54:12;;;;;;;4.20;3.30;;;11.20;33.80;;;;;;10464005;28;20743;-66
2023/04/27 06:59:17;;;;;;;6.00;3.27;;;11.30;33.80;;;;;;10462616;28;20235;-66
2023/04/27 07:04:20;;;;;;;3.77;3.30;;;11.40;33.80;;;;;;10458630;28;20227;-66
2023/04/27 07:09:24;;;;;;;3.80;3.33;;;11.50;33.70;;;;;;10464751;28;20256;-66
2023/04/27 07:14:32;;;;;;;5.23;3.23;;;11.60;33.90;;;;;;10459231;28;20253;-66
2023/04/27 07:19:37;;;;;;;4.03;3.20;;;11.70;33.90;;;;;;10465945;28;20751;-66
2023/04/27 07:24:40;;;;;;;3.53;3.03;;;11.90;35.20;;;;;;10461043;28;20640;-66
2023/04/27 07:29:44;;;;;;;5.07;3.30;;;12.00;35.60;;;;;;10463013;28;20228;-72
2023/04/27 07:34:49;;;;;;;3.37;3.03;;;12.30;35.40;;;;;;10462238;28;20229;-70
2023/04/27 07:39:56;;;;;;;5.20;3.03;;;12.50;35.20;;;;;;10457388;28;20791;-67
2023/04/27 07:45:01;;;;;;;7.40;3.47;;;12.80;34.80;;;;;;10460164;28;20224;-66
2023/04/27 07:50:05;;;;;;;4.37;3.77;;;13.00;34.50;;;;;;10462082;28;20243;-67
2023/04/27 07:55:08;;;;;;;4.83;3.43;;;13.10;34.20;;;;;;10467124;28;20235;-67
2023/04/27 08:00:14;;;;;;;4.20;3.43;;;13.20;34.10;;;;;;10461171;28;20460;-66
2023/04/27 08:05:18;;;;;;;4.90;3.70;;;13.40;34.00;;;;;;10462877;28;20242;-66
2023/04/27 08:10:22;;;;;;;3.80;3.23;;;13.40;33.60;;;;;;10457696;28;20238;-66
2023/04/27 08:15:27;;;;;;;4.10;3.30;;;13.60;33.80;;;;;;10462602;28;20229;-66
2023/04/27 08:20:30;;;;;;;5.27;3.40;;;13.60;33.60;;;;;;10458342;28;20239;-66
2023/04/27 08:25:33;;;;;;;4.43;3.40;;;13.70;33.70;;;;;;10460963;28;20228;-66
2023/04/27 08:30:37;;;;;;;3.60;2.70;;;13.90;33.10;;;;;;10457589;28;20682;-66
2023/04/27 08:35:40;;;;;;;4.33;2.60;;;14.00;33.40;;;;;;10461006;28;20679;-67
2023/04/27 08:40:44;;;;;;;4.30;2.73;;;14.20;33.70;;;;;;10454916;28;20229;-68
2023/04/27 08:45:50;;;;;;;3.30;2.80;;;14.40;33.30;;;;;;10456181;28;20717;-66
2023/04/27 08:50:55;;;;;;;4.20;2.90;;;14.70;31.80;;;;;;10460273;28;20315;-66
2023/04/27 08:55:58;;;;;;;5.00;2.80;;;14.80;31.90;;;;;;10456549;28;20232;-67
2023/04/27 09:01:05;;;;;;;3.37;2.83;;;14.90;32.00;;;;;;10455335;28;20216;-68
2023/04/27 09:06:09;;;;;;;4.40;2.83;;;15.10;30.60;;;;;;10459884;28;20231;-66
2023/04/27 09:11:12;;;;;;;4.20;3.10;;;15.10;30.90;;;;;;10452473;28;20733;-66
2023/04/27 09:16:23;;;;;;;4.67;3.10;;;15.30;31.20;;;;;;10457781;28;20622;-66
2023/04/27 09:21:29;;;;;;;4.60;3.00;;;15.40;30.00;;;;;;10460476;28;20224;-67
2023/04/27 09:26:32;;;;;;;3.30;2.47;;;15.50;30.40;;;;;;10456808;28;20233;-66
2023/04/27 09:31:37;;;;;;;3.63;2.30;;;15.60;30.80;;;;;;10457085;28;20298;-67
2023/04/27 09:36:40;;;;;;;4.77;2.60;;;15.70;29.80;;;;;;10455027;28;20232;-66
2023/04/27 09:41:43;;;;;;;4.33;2.53;;;15.90;30.00;;;;;;10455366;28;20236;-66
2023/04/27 09:46:48;;;;;;;3.07;2.50;;;16.10;30.00;;;;;;10458132;28;20730;-66
2023/04/27 09:51:53;;;;;;;3.70;2.30;;;16.20;29.60;;;;;;10464801;28;20251;-66
2023/04/27 09:57:07;;;;;;;4.40;2.90;;;16.40;29.90;;;;;;10466726;28;20743;-66
2023/04/27 10:02:16;;;;;;;3.83;2.70;;;16.60;29.00;;;;;;10465375;28;20237;-67
2023/04/27 10:07:28;;;;;;;2.90;2.50;;;16.80;28.20;;;;;;10461888;28;20310;-66
2023/04/27 10:12:35;;;;;;;4.83;2.80;;;16.90;29.00;;;;;;10463133;28;20240;-66
2023/04/27 10:17:48;;;;;;;2.90;2.60;;;17.10;28.10;;;;;;10464619;28;20242;-66
2023/04/27 10:22:52;;;;;;;3.30;2.33;;;17.10;27.40;;;;;;10460217;28;20705;-66
2023/04/27 10:27:57;;;;;;;5.33;2.33;;;17.30;28.50;;;;;;10456175;28;20232;-66
2023/04/27 10:33:08;;;;;;;3.00;2.60;;;17.40;28.10;;;;;;10453860;28;20750;-66
2023/04/27 10:38:16;;;;;;;4.17;2.63;;;17.50;26.90;;;;;;10454981;28;20233;-66
2023/04/27 10:43:23;;;;;;;3.23;2.90;;;17.70;27.10;;;;;;10452733;28;20335;-66
2023/04/27 10:48:30;;;;;;;3.10;2.77;;;17.80;28.50;;;;;;10460419;28;20316;-66
2023/04/27 10:53:37;;;;;;;3.97;3.20;;;17.90;27.30;;;;;;10458795;28;20237;-66
2023/04/27 10:58:40;;;;;;;4.23;2.97;;;18.10;27.10;;;;;;10461979;28;20608;-66
2023/04/27 11:03:56;;;;;;;3.47;2.93;;;18.20;27.80;;;;;;10462142;28;20283;-66
2023/04/27 11:09:00;;;;;;;3.37;2.50;;;18.30;26.90;;;;;;10462750;28;20233;-67
2023/04/27 11:14:03;;;;;;;3.30;2.90;;;18.40;27.90;;;;;;10459291;28;20220;-67
2023/04/27 11:19:07;;;;;;;4.33;2.77;;;18.50;27.50;;;;;;10459915;28;20228;-67
2023/04/27 11:24:11;;;;;;;3.53;2.60;;;18.60;26.80;;;;;;10463027;28;20260;-66
2023/04/27 11:29:17;;;;;;;4.33;3.00;;;18.70;27.30;;;;;;10457850;28;20275;-66
2023/04/27 11:34:23;;;;;;;3.87;3.47;;;18.70;27.20;;;;;;10463096;28;20228;-67
2023/04/27 11:39:27;;;;;;;4.07;3.30;;;18.70;26.40;;;;;;10460588;28;20730;-66
2023/04/27 11:44:30;;;;;;;5.63;3.63;;;18.70;26.50;;;;;;10460732;28;20221;-66
2023/04/27 11:49:36;;;;;;;3.47;3.20;;;18.70;26.40;;;;;;10458536;28;20267;-66
2023/04/27 11:54:39;;;;;;;4.67;3.27;;;18.80;26.20;;;;;;10460093;28;20221;-66
2023/04/27 11:59:43;;;;;;;4.57;3.53;;;18.80;26.90;;;;;;10462726;28;20231;-66
2023/04/27 12:04:48;;;;;;;4.07;3.27;;;18.80;26.20;;;;;;10460658;28;20718;-66
2023/04/27 12:09:52;;;;;;;3.93;3.30;;;18.80;26.10;;;;;;10462417;28;20232;-66
2023/04/27 12:14:55;;;;;;;3.93;3.10;;;18.90;26.20;;;;;;10462268;28;20268;-66
2023/04/27 12:19:59;;;;;;;3.47;2.93;;;18.90;25.70;;;;;;10459682;28;20233;-66
2023/04/27 12:25:04;;;;;;;3.23;2.70;;;18.90;25.90;;;;;;10462461;28;20237;-67
2023/04/27 12:30:08;;;;;;;3.27;2.93;;;18.90;26.20;;;;;;10457702;28;20224;-67
2023/04/27 12:35:13;;;;;;;3.50;3.20;;;19.00;25.90;;;;;;10460926;28;20246;-66
2023/04/27 12:40:16;;;;;;;3.40;3.10;;;19.00;25.80;;;;;;10461717;28;20269;-66
2023/04/27 12:45:20;;;;;;;3.20;2.90;;;19.10;26.10;;;;;;10457554;28;20228;-66
2023/04/27 12:50:25;;;;;;;3.53;2.67;;;19.20;25.50;;;;;;10465033;28;20602;-66
2023/04/27 12:55:29;;;;;;;4.10;3.10;;;19.20;25.40;;;;;;10505530;23;20223;-69
2023/04/27 13:00:37;;;;;;;4.27;3.40;;;19.30;25.40;;;;;;10488954;28;20248;-69
2023/04/27 13:05:43;;;;;;;4.13;3.30;;;19.40;25.10;;;;;;10488896;28;20778;-69
2023/04/27 13:10:46;;;;;;;2.90;2.63;;;19.40;25.20;;;;;;10488712;28;20239;-69
2023/04/27 13:15:49;;;;;;;3.33;2.90;;;19.40;25.00;;;;;;10488751;28;20231;-69
2023/04/27 13:20:53;;;;;;;3.57;2.73;;;19.40;25.40;;;;;;10488389;28;20232;-69
2023/04/27 13:25:57;;;;;;;3.10;2.87;;;19.40;24.90;;;;;;10494071;28;20228;-69
2023/04/27 13:31:00;;;;;;;3.23;2.97;;;19.50;25.00;;;;;;10496105;28;20232;-69
2023/04/27 13:36:06;;;;;;;3.10;2.63;;;19.50;25.00;;;;;;10495849;28;20236;-69
2023/04/27 13:41:09;;;;;;;5.23;2.70;;;19.60;25.10;;;;;;10495729;28;20830;-69
2023/04/27 13:46:12;;;;;;;3.67;2.60;;;19.60;25.00;;;;;;10495670;28;20735;-69
2023/04/27 13:51:17;;;;;;;3.20;2.77;;;19.70;25.10;;;;;;10495712;28;20258;-69
2023/04/27 13:56:20;;;;;;;5.90;2.60;;;19.70;24.40;;;;;;10495322;28;20228;-69
2023/04/27 14:01:23;;;;;;;3.20;2.27;;;19.60;25.00;;;;;;10495003;28;20266;-69
2023/04/27 14:06:28;;;;;;;4.00;2.63;;;19.60;25.00;;;;;;10494973;28;20235;-69
2023/04/27 14:11:31;;;;;;;3.30;2.30;;;19.60;24.30;;;;;;10494809;28;20224;-69
2023/04/27 14:16:50;;;;;;;2.47;2.07;;;19.60;24.90;;;;;;10494554;28;20236;-69
2023/04/27 14:21:55;;;;;;;2.77;2.30;;;19.70;24.80;;;;;;10494467;28;20228;-69
2023/04/27 14:26:58;;;;;;;2.70;2.50;;;19.80;24.10;;;;;;10494237;28;20236;-71
2023/04/27 14:32:01;;;;;;;4.43;2.40;;;19.90;24.10;;;;;;10494056;28;20715;-69
2023/04/27 14:37:06;;;;;;;3.90;2.50;;;19.90;24.10;;;;;;10493030;28;20247;-69
2023/04/27 14:42:09;;;;;;;2.67;2.20;;;19.90;24.30;;;;;;10493616;28;20770;-69
2023/04/27 14:47:12;;;;;;;3.83;2.30;;;19.90;24.10;;;;;;10493319;28;20238;-69
2023/04/27 14:52:17;;;;;;;3.93;2.73;;;20.00;24.00;;;;;;10493541;28;20259;-69
2023/04/27 14:57:20;;;;;;;2.93;2.73;;;20.00;23.10;;;;;;10492912;28;20333;-69
2023/04/27 15:02:23;;;;;;;4.63;2.93;;;20.00;23.60;;;;;;10492876;28;20231;-69
2023/04/27 15:07:28;;;;;;;2.90;2.60;;;20.00;23.50;;;;;;10492675;28;20228;-69
2023/04/27 15:12:31;;;;;;;4.43;2.20;;;19.90;23.00;;;;;;10492504;28;20228;-69
2023/04/27 15:17:34;;;;;;;2.43;2.17;;;19.90;23.70;;;;;;10492097;28;20239;-69
2023/04/27 15:22:38;;;;;;;3.13;1.97;;;19.80;23.40;;;;;;10491981;28;20277;-69
2023/04/27 15:27:41;;;;;;;2.63;2.13;;;19.80;23.20;;;;;;10491919;28;20239;-69
2023/04/27 15:32:45;;;;;;;4.00;2.20;;;19.80;23.70;;;;;;10491593;28;20216;-69
2023/04/27 15:37:50;;;;;;;4.03;2.60;;;19.80;23.90;;;;;;10491244;28;20289;-69
2023/04/27 15:42:53;;;;;;;2.53;2.33;;;19.90;23.30;;;;;;10491276;28;20231;-69
2023/04/27 15:47:56;;;;;;;2.73;2.47;;;20.10;23.50;;;;;;10490312;28;20236;-69
2023/04/27 15:53:01;;;;;;;3.17;2.50;;;20.20;23.40;;;;;;10490501;28;20648;-69
2023/04/27 15:58:04;;;;;;;3.90;2.60;;;20.20;23.00;;;;;;10490798;28;20760;-69
2023/04/27 16:03:09;;;;;;;3.37;2.50;;;20.20;23.10;;;;;;10490236;28;20228;-69
2023/04/27 16:08:14;;;;;;;2.93;2.73;;;20.20;23.30;;;;;;10490437;28;20767;-69
2023/04/27 16:13:18;;;;;;;2.70;2.10;;;20.20;22.80;;;;;;10486498;28;20255;-69
2023/04/27 16:18:21;;;;;;;2.63;2.43;;;20.20;23.00;;;;;;10456151;28;20247;-69
2023/04/27 16:23:25;;;;;;;2.70;2.50;;;20.20;23.10;;;;;;10456102;28;20240;-69
2023/04/27 16:28:29;;;;;;;2.80;2.60;;;20.20;22.80;;;;;;10454530;28;20230;-69
2023/04/27 16:33:32;;;;;;;4.20;2.63;;;20.40;23.10;;;;;;10458711;28;20232;-69
2023/04/27 16:38:36;;;;;;;3.20;2.90;;;20.40;22.90;;;;;;10453655;28;20240;-69
2023/04/27 16:43:41;;;;;;;3.47;2.53;;;20.50;22.60;;;;;;10452289;28;20236;-69
2023/04/27 16:48:44;;;;;;;2.60;2.40;;;20.60;22.90;;;;;;10449788;28;20482;-69
2023/04/27 16:53:49;;;;;;;2.40;2.20;;;20.60;22.80;;;;;;10454164;28;20228;-69
2023/04/27 16:58:52;;;;;;;3.50;1.90;;;20.60;22.40;;;;;;10459623;28;20232;-69
2023/04/27 17:03:55;;;;;;;2.50;2.30;;;20.70;22.70;;;;;;10471521;28;20244;-69
2023/04/27 17:09:00;;;;;;;2.30;2.10;;;20.70;22.60;;;;;;10473067;28;20228;-69
2023/04/27 17:14:03;;;;;;;2.60;2.03;;;20.70;22.40;;;;;;10466217;28;20255;-69
2023/04/27 17:19:07;;;;;;;2.43;2.23;;;20.70;22.60;;;;;;10462302;28;20583;-69
2023/04/27 17:24:11;;;;;;;2.47;2.20;;;20.80;22.50;;;;;;10466347;28;20232;-69
2023/04/27 17:29:14;;;;;;;2.43;2.20;;;20.80;22.60;;;;;;10467133;28;20242;-69
2023/04/27 17:34:18;;;;;;;4.43;2.33;;;20.80;22.60;;;;;;10475388;28;20260;-68
2023/04/27 17:39:24;;;;;;;3.20;2.40;;;20.70;22.80;;;;;;10498780;28;21022;-68
2023/04/27 17:44:27;;;;;;;2.43;2.23;;;20.60;22.60;;;;;;10500085;28;20699;-68
2023/04/27 17:49:31;;;;;;;2.63;2.20;;;20.50;22.80;;;;;;10500020;28;20234;-68
2023/04/27 17:54:36;;;;;;;3.37;1.97;;;20.40;22.70;;;;;;10495562;28;20315;-68
2023/04/27 17:59:39;;;;;;;2.43;1.60;;;20.30;22.70;;;;;;10492459;28;20228;-68
2023/04/27 18:04:42;;;;;;;2.80;1.70;;;20.20;23.00;;;;;;10493384;27;20224;-68
2023/04/27 18:09:47;;;;;;;3.00;2.10;;;20.10;23.20;;;;;;10491868;28;20319;-68
2023/04/27 18:14:50;;;;;;;3.10;2.50;;;20.00;23.30;;;;;;10483414;28;20239;-68
2023/04/27 18:19:55;;;;;;;2.90;2.33;;;19.90;23.40;;;;;;10490330;28;20225;-69
2023/04/27 18:25:12;;;;;;;5.50;2.10;;;19.80;23.60;;;;;;10477681;28;20759;-68
2023/04/27 18:30:15;;;;;;;3.40;2.30;;;19.70;23.80;;;;;;10490591;28;20684;-68
2023/04/27 18:35:18;;;;;;;3.83;2.30;;;19.60;23.90;;;;;;10491358;28;20648;-68
2023/04/27 18:40:24;;;;;;;3.93;2.50;;;19.50;23.90;;;;;;10478830;28;20236;-68
2023/04/27 18:45:27;;;;;;;3.17;2.27;;;19.30;24.00;;;;;;10487882;28;20256;-68
2023/04/27 18:50:31;;;;;;;2.00;1.80;;;19.30;24.20;;;;;;10486254;28;20290;-68
2023/04/27 18:55:35;;;;;;;4.27;2.30;;;19.20;24.30;;;;;;10478346;28;20227;-68
2023/04/27 19:00:38;;;;;;;2.17;1.97;;;19.00;24.30;;;;;;10492119;28;20232;-68
2023/04/27 19:05:42;;;;;;;2.30;1.87;;;18.90;24.50;;;;;;10488097;28;20228;-68
2023/04/27 19:10:47;;;;;;;2.10;1.90;;;18.80;24.50;;;;;;10492199;28;20228;-68
2023/04/27 19:15:50;;;;;;;3.87;1.93;;;18.70;24.40;;;;;;10490492;28;20232;-68
2023/04/27 19:20:53;;;;;;;4.30;2.33;;;18.60;24.40;;;;;;10490309;28;20232;-68
2023/04/27 19:25:58;;;;;;;2.70;2.50;;;18.50;24.30;;;;;;10491177;28;20270;-68
2023/04/27 19:31:14;;;;;;;2.63;2.43;;;18.30;24.20;;;;;;10479028;28;20221;-68
2023/04/27 19:36:17;;;;;;;2.80;2.57;;;18.20;24.10;;;;;;10484668;28;20696;-68
2023/04/27 19:41:22;;;;;;;4.80;3.50;;;18.10;24.90;;;;;;10486833;28;20282;-68
2023/04/27 19:46:25;;;;;;;6.07;3.40;;;18.00;24.50;;;;;;10482197;28;20330;-68
2023/04/27 19:51:29;;;;;;;5.40;4.73;;;17.80;24.60;;;;;;10490647;28;20228;-68
2023/04/27 19:56:33;;;;;;;10.60;9.50;;;17.70;24.70;;;;;;10489651;28;20240;-69
2023/04/27 20:01:36;;;;;;;11.63;10.43;;;17.60;24.90;;;;;;10489624;28;20235;-68
2023/04/27 20:06:42;;;;;;;10.50;9.40;;;17.50;24.80;;;;;;10486658;28;20232;-68
2023/04/27 20:11:46;;;;;;;7.70;6.63;;;17.40;24.90;;;;;;10486956;28;20223;-68
2023/04/27 20:16:50;;;;;;;7.00;5.57;;;17.30;25.10;;;;;;10485395;28;20246;-68
2023/04/27 20:21:53;;;;;;;5.30;4.40;;;17.20;25.10;;;;;;10480646;28;20235;-69
2023/04/27 20:26:58;;;;;;;4.97;3.63;;;17.10;25.20;;;;;;10483971;28;20290;-69
2023/04/27 20:32:01;;;;;;;4.30;3.90;;;17.00;25.50;;;;;;10478467;28;20239;-68
2023/04/27 20:37:04;;;;;;;4.10;3.67;;;16.90;25.40;;;;;;10480787;28;20232;-71
2023/04/27 20:42:11;;;;;;;3.50;3.13;;;16.90;25.50;;;;;;10480636;28;20228;-68
2023/04/27 20:47:14;;;;;;;4.57;3.90;;;16.80;25.60;;;;;;10483272;28;20236;-68
2023/04/27 20:52:17;;;;;;;3.87;3.43;;;16.70;25.50;;;;;;10488865;28;20692;-69
2023/04/27 20:57:22;;;;;;;6.47;4.93;;;16.60;25.60;;;;;;10488142;28;20239;-68
2023/04/27 21:02:25;;;;;;;7.47;6.03;;;16.50;25.90;;;;;;10483053;28;20235;-71
2023/04/27 21:07:28;;;;;;;6.57;4.97;;;16.40;25.70;;;;;;10482454;28;21001;-68
2023/04/27 21:12:33;;;;;;;6.00;4.70;;;16.40;25.70;;;;;;10482909;28;20231;-68
2023/04/27 21:17:36;;;;;;;7.20;4.33;;;16.30;26.00;;;;;;10479905;28;20642;-68
2023/04/27 21:22:40;;;;;;;4.40;4.10;;;16.20;25.80;;;;;;10482596;28;20228;-68
2023/04/27 21:27:44;;;;;;;5.00;3.87;;;16.10;25.80;;;;;;10475894;28;20224;-71
2023/04/27 21:32:48;;;;;;;4.40;3.70;;;15.90;25.90;;;;;;10486453;28;20228;-68
2023/04/27 21:37:51;;;;;;;3.90;3.50;;;15.80;25.80;;;;;;10478322;28;20239;-68
2023/04/27 21:42:56;;;;;;;3.30;3.10;;;15.60;25.90;;;;;;10482245;28;20282;-71
2023/04/27 21:47:59;;;;;;;3.40;2.73;;;15.50;26.30;;;;;;10492764;28;20255;-71
2023/04/27 21:53:03;;;;;;;7.30;3.80;;;15.30;26.20;;;;;;10484760;28;20224;-68
2023/04/27 21:58:08;;;;;;;4.40;4.00;;;15.20;26.30;;;;;;10488052;28;20789;-71
2023/04/27 22:03:11;;;;;;;4.13;3.73;;;15.20;26.70;;;;;;10485892;28;20220;-71
2023/04/27 22:08:16;;;;;;;4.83;3.83;;;15.10;26.40;;;;;;10486958;28;20239;-68
2023/04/27 22:13:20;;;;;;;4.20;3.90;;;14.90;26.50;;;;;;10492806;28;20221;-68
2023/04/27 22:18:24;;;;;;;5.43;3.83;;;14.90;26.80;;;;;;10487120;28;20243;-68
2023/04/27 22:23:27;;;;;;;4.87;4.30;;;14.80;26.70;;;;;;10489491;28;20712;-68
2023/04/27 22:28:31;;;;;;;4.70;4.30;;;14.70;26.70;;;;;;10486433;28;20224;-68
2023/04/27 22:33:35;;;;;;;4.97;4.47;;;14.50;27.00;;;;;;10493320;28;20736;-69
2023/04/27 22:38:38;;;;;;;4.40;4.00;;;14.50;27.00;;;;;;10489235;28;20224;-69
2023/04/27 22:43:43;;;;;;;4.67;4.30;;;14.40;27.10;;;;;;10489426;28;20309;-68
2023/04/27 22:48:46;;;;;;;4.00;3.60;;;14.30;27.50;;;;;;10486456;28;20220;-69
2023/04/27 22:53:49;;;;;;;4.70;4.20;;;14.30;27.40;;;;;;10481741;28;20235;-68
2023/04/27 22:58:54;;;;;;;5.07;4.67;;;14.20;27.30;;;;;;10479726;28;20232;-68
2023/04/27 23:03:57;;;;;;;5.07;4.67;;;14.20;27.70;;;;;;10488502;28;20240;-68
2023/04/27 23:09:00;;;;;;;4.80;4.40;;;14.20;27.40;;;;;;10491468;28;20221;-68
2023/04/27 23:14:04;;;;;;;5.97;5.37;;;14.10;27.50;;;;;;10476680;28;20295;-69
2023/04/27 23:19:08;;;;;;;5.13;4.63;;;14.10;27.70;;;;;;10458946;28;20232;-69
2023/04/27 23:24:11;;;;;;;5.90;5.40;;;14.00;27.50;;;;;;10464008;28;20787;-69
2023/04/27 23:29:15;;;;;;;7.33;5.77;;;14.00;27.70;;;;;;10461562;28;20907;-69
2023/04/27 23:34:18;;;;;;;5.87;5.27;;;13.90;27.90;;;;;;10462171;28;20754;-69
2023/04/27 23:39:22;;;;;;;6.33;5.07;;;13.90;27.90;;;;;;10465487;28;20243;-69
2023/04/27 23:44:26;;;;;;;5.40;4.90;;;13.90;28.10;;;;;;10462036;28;20595;-69
2023/04/27 23:49:29;;;;;;;7.53;5.07;;;13.90;28.30;;;;;;10460285;28;20635;-69
2023/04/27 23:54:32;;;;;;;5.97;5.23;;;13.90;28.10;;;;;;10463034;28;20612;-69
2023/04/27 23:59:37;;;;;;;6.20;4.90;;;13.90;28.10;;;;;;10455643;28;20232;-69
